sensor_id;sensor_type;location;lat;lon;timestamp;temperature;humidity
62853;DHT22;49205;44.868;38.140;2022-09-25T00:02:13;12.70;86.50
62853;DHT22;49205;44.868;38.140;2022-09-25T00:04:42;12.80;86.80
62853;DHT22;49205;44.868;38.140;2022-09-25T00:07:11;12.80;87.20
62853;DHT22;49205;44.868;38.140;2022-09-25T00:09:41;12.90;87.20
62853;DHT22;49205;44.868;38.140;2022-09-25T00:12:11;12.80;87.00
62853;DHT22;49205;44.868;38.140;2022-09-25T00:14:40;12.70;86.30
62853;DHT22;49205;44.868;38.140;2022-09-25T00:17:09;12.50;86.50
62853;DHT22;49205;44.868;38.140;2022-09-25T00:19:39;12.40;87.70
62853;DHT22;49205;44.868;38.140;2022-09-25T00:22:19;12.20;87.30
62853;DHT22;49205;44.868;38.140;2022-09-25T00:24:48;12.10;87.20
62853;DHT22;49205;44.868;38.140;2022-09-25T00:27:17;11.90;87.00
62853;DHT22;49205;44.868;38.140;2022-09-25T00:29:46;11.80;87.60
62853;DHT22;49205;44.868;38.140;2022-09-25T00:32:16;11.60;87.70
62853;DHT22;49205;44.868;38.140;2022-09-25T00:34:45;11.50;87.90
62853;DHT22;49205;44.868;38.140;2022-09-25T00:37:14;11.50;88.50
62853;DHT22;49205;44.868;38.140;2022-09-25T00:39:44;11.40;88.70
62853;DHT22;49205;44.868;38.140;2022-09-25T00:42:13;11.40;89.30
62853;DHT22;49205;44.868;38.140;2022-09-25T00:44:52;11.50;90.00
62853;DHT22;49205;44.868;38.140;2022-09-25T00:47:31;11.60;89.70
62853;DHT22;49205;44.868;38.140;2022-09-25T00:50:03;11.70;89.70
62853;DHT22;49205;44.868;38.140;2022-09-25T00:52:33;11.80;89.80
62853;DHT22;49205;44.868;38.140;2022-09-25T00:55:04;11.90;89.80
62853;DHT22;49205;44.868;38.140;2022-09-25T00:57:36;11.90;89.30
62853;DHT22;49205;44.868;38.140;2022-09-25T01:00:09;11.90;89.20
62853;DHT22;49205;44.868;38.140;2022-09-25T01:02:41;11.90;89.80
62853;DHT22;49205;44.868;38.140;2022-09-25T01:05:16;11.90;89.60
62853;DHT22;49205;44.868;38.140;2022-09-25T01:07:47;12.00;89.90
62853;DHT22;49205;44.868;38.140;2022-09-25T01:10:18;12.00;90.00
62853;DHT22;49205;44.868;38.140;2022-09-25T01:12:49;12.00;90.00
62853;DHT22;49205;44.868;38.140;2022-09-25T01:15:20;12.00;90.10
62853;DHT22;49205;44.868;38.140;2022-09-25T01:26:43;12.00;90.00
62853;DHT22;49205;44.868;38.140;2022-09-25T01:29:24;12.10;90.10
62853;DHT22;49205;44.868;38.140;2022-09-25T01:32:22;12.10;90.10
62853;DHT22;49205;44.868;38.140;2022-09-25T01:35:03;12.10;90.10
62853;DHT22;49205;44.868;38.140;2022-09-25T01:45:35;12.30;90.20
62853;DHT22;49205;44.868;38.140;2022-09-25T01:48:04;12.30;89.80
62853;DHT22;49205;44.868;38.140;2022-09-25T01:50:43;12.20;88.30
62853;DHT22;49205;44.868;38.140;2022-09-25T01:53:11;12.00;88.70
62853;DHT22;49205;44.868;38.140;2022-09-25T01:55:46;11.80;88.30
62853;DHT22;49205;44.868;38.140;2022-09-25T01:58:31;11.60;88.80
62853;DHT22;49205;44.868;38.140;2022-09-25T02:01:08;11.40;89.20
62853;DHT22;49205;44.868;38.140;2022-09-25T02:03:38;11.20;89.70
62853;DHT22;49205;44.868;38.140;2022-09-25T02:06:09;11.20;89.60
62853;DHT22;49205;44.868;38.140;2022-09-25T02:08:45;11.10;89.90
62853;DHT22;49205;44.868;38.140;2022-09-25T02:11:14;11.00;90.00
62853;DHT22;49205;44.868;38.140;2022-09-25T02:14:01;10.90;89.80
62853;DHT22;49205;44.868;38.140;2022-09-25T02:16:30;10.90;89.90
62853;DHT22;49205;44.868;38.140;2022-09-25T02:18:59;10.80;89.90
62853;DHT22;49205;44.868;38.140;2022-09-25T02:27:06;10.50;90.00
62853;DHT22;49205;44.868;38.140;2022-09-25T02:29:35;10.50;90.10
62853;DHT22;49205;44.868;38.140;2022-09-25T02:32:10;10.50;90.00
62853;DHT22;49205;44.868;38.140;2022-09-25T02:34:39;10.40;90.30
62853;DHT22;49205;44.868;38.140;2022-09-25T02:37:16;10.40;90.30
62853;DHT22;49205;44.868;38.140;2022-09-25T02:39:48;10.40;90.40
62853;DHT22;49205;44.868;38.140;2022-09-25T02:42:28;10.40;90.30
62853;DHT22;49205;44.868;38.140;2022-09-25T02:45:05;10.40;90.30
62853;DHT22;49205;44.868;38.140;2022-09-25T02:48:07;10.40;90.40
62853;DHT22;49205;44.868;38.140;2022-09-25T02:50:41;10.40;90.50
62853;DHT22;49205;44.868;38.140;2022-09-25T02:56:04;10.50;90.70
62853;DHT22;49205;44.868;38.140;2022-09-25T03:01:05;10.80;90.80
62853;DHT22;49205;44.868;38.140;2022-09-25T03:03:37;10.80;90.80
62853;DHT22;49205;44.868;38.140;2022-09-25T03:06:07;10.90;90.90
62853;DHT22;49205;44.868;38.140;2022-09-25T03:08:39;11.00;90.90
62853;DHT22;49205;44.868;38.140;2022-09-25T03:11:16;11.00;90.70
62853;DHT22;49205;44.868;38.140;2022-09-25T03:13:43;11.10;90.90
62853;DHT22;49205;44.868;38.140;2022-09-25T03:16:22;11.10;91.00
62853;DHT22;49205;44.868;38.140;2022-09-25T03:18:50;11.20;90.80
62853;DHT22;49205;44.868;38.140;2022-09-25T03:21:20;11.20;90.60
62853;DHT22;49205;44.868;38.140;2022-09-25T03:23:49;11.20;90.50
62853;DHT22;49205;44.868;38.140;2022-09-25T03:26:19;11.20;90.60
62853;DHT22;49205;44.868;38.140;2022-09-25T03:28:48;11.10;90.80
62853;DHT22;49205;44.868;38.140;2022-09-25T03:31:18;11.20;91.00
62853;DHT22;49205;44.868;38.140;2022-09-25T03:33:48;11.30;91.00
62853;DHT22;49205;44.868;38.140;2022-09-25T03:36:20;11.40;90.90
62853;DHT22;49205;44.868;38.140;2022-09-25T03:38:51;11.50;90.90
62853;DHT22;49205;44.868;38.140;2022-09-25T03:41:21;11.60;90.90
62853;DHT22;49205;44.868;38.140;2022-09-25T03:43:51;11.70;90.80
62853;DHT22;49205;44.868;38.140;2022-09-25T03:46:23;11.80;90.70
62853;DHT22;49205;44.868;38.140;2022-09-25T03:48:53;11.80;90.70
62853;DHT22;49205;44.868;38.140;2022-09-25T03:51:23;11.80;90.40
62853;DHT22;49205;44.868;38.140;2022-09-25T03:53:54;11.80;90.60
62853;DHT22;49205;44.868;38.140;2022-09-25T03:56:25;11.90;90.70
62853;DHT22;49205;44.868;38.140;2022-09-25T03:58:55;12.00;90.70
62853;DHT22;49205;44.868;38.140;2022-09-25T04:01:25;12.00;90.60
62853;DHT22;49205;44.868;38.140;2022-09-25T04:03:55;12.10;90.70
62853;DHT22;49205;44.868;38.140;2022-09-25T04:06:25;12.10;90.70
62853;DHT22;49205;44.868;38.140;2022-09-25T04:08:54;12.20;90.60
62853;DHT22;49205;44.868;38.140;2022-09-25T04:11:24;12.20;90.10
62853;DHT22;49205;44.868;38.140;2022-09-25T04:13:53;12.20;90.20
62853;DHT22;49205;44.868;38.140;2022-09-25T04:16:23;12.30;90.30
62853;DHT22;49205;44.868;38.140;2022-09-25T04:18:54;12.40;90.40
62853;DHT22;49205;44.868;38.140;2022-09-25T04:21:24;12.40;90.20
62853;DHT22;49205;44.868;38.140;2022-09-25T04:23:53;12.40;90.10
62853;DHT22;49205;44.868;38.140;2022-09-25T04:26:41;12.50;90.00
62853;DHT22;49205;44.868;38.140;2022-09-25T04:29:10;12.50;89.70
62853;DHT22;49205;44.868;38.140;2022-09-25T04:31:41;12.60;89.20
62853;DHT22;49205;44.868;38.140;2022-09-25T04:34:10;12.70;88.70
62853;DHT22;49205;44.868;38.140;2022-09-25T04:36:40;12.80;88.30
62853;DHT22;49205;44.868;38.140;2022-09-25T04:39:09;12.80;87.30
62853;DHT22;49205;44.868;38.140;2022-09-25T04:41:38;12.80;87.10
62853;DHT22;49205;44.868;38.140;2022-09-25T04:44:09;12.90;87.20
62853;DHT22;49205;44.868;38.140;2022-09-25T04:46:39;12.90;87.10
62853;DHT22;49205;44.868;38.140;2022-09-25T04:49:08;13.00;87.50
62853;DHT22;49205;44.868;38.140;2022-09-25T04:51:38;13.10;87.00
62853;DHT22;49205;44.868;38.140;2022-09-25T04:54:07;13.20;86.70
62853;DHT22;49205;44.868;38.140;2022-09-25T04:56:37;13.30;86.40
62853;DHT22;49205;44.868;38.140;2022-09-25T04:59:07;13.30;85.70
62853;DHT22;49205;44.868;38.140;2022-09-25T05:01:38;13.40;86.40
62853;DHT22;49205;44.868;38.140;2022-09-25T05:04:07;13.40;87.00
62853;DHT22;49205;44.868;38.140;2022-09-25T05:06:36;13.50;86.80
62853;DHT22;49205;44.868;38.140;2022-09-25T05:09:06;13.60;86.20
62853;DHT22;49205;44.868;38.140;2022-09-25T05:11:35;13.70;85.80
62853;DHT22;49205;44.868;38.140;2022-09-25T05:14:04;13.80;84.40
62853;DHT22;49205;44.868;38.140;2022-09-25T05:16:33;13.90;84.50
62853;DHT22;49205;44.868;38.140;2022-09-25T05:19:03;13.90;84.20
62853;DHT22;49205;44.868;38.140;2022-09-25T05:21:32;14.00;83.70
62853;DHT22;49205;44.868;38.140;2022-09-25T05:24:02;14.10;83.40
62853;DHT22;49205;44.868;38.140;2022-09-25T05:26:32;14.10;83.70
62853;DHT22;49205;44.868;38.140;2022-09-25T05:29:02;14.20;82.90
62853;DHT22;49205;44.868;38.140;2022-09-25T05:31:32;14.20;82.50
62853;DHT22;49205;44.868;38.140;2022-09-25T05:34:01;14.30;82.00
62853;DHT22;49205;44.868;38.140;2022-09-25T05:36:31;14.40;82.10
62853;DHT22;49205;44.868;38.140;2022-09-25T05:39:01;14.50;81.70
62853;DHT22;49205;44.868;38.140;2022-09-25T05:41:30;14.50;80.80
62853;DHT22;49205;44.868;38.140;2022-09-25T05:44:01;14.60;80.80
62853;DHT22;49205;44.868;38.140;2022-09-25T05:46:35;14.60;80.10
62853;DHT22;49205;44.868;38.140;2022-09-25T05:49:05;14.70;80.10
62853;DHT22;49205;44.868;38.140;2022-09-25T05:51:34;14.70;79.70
62853;DHT22;49205;44.868;38.140;2022-09-25T05:54:03;14.80;79.90
62853;DHT22;49205;44.868;38.140;2022-09-25T05:56:33;14.90;79.70
62853;DHT22;49205;44.868;38.140;2022-09-25T05:59:02;15.00;79.10
62853;DHT22;49205;44.868;38.140;2022-09-25T06:01:32;15.00;79.40
62853;DHT22;49205;44.868;38.140;2022-09-25T06:04:01;15.10;79.00
62853;DHT22;49205;44.868;38.140;2022-09-25T06:06:31;15.10;78.90
62853;DHT22;49205;44.868;38.140;2022-09-25T06:09:00;15.20;78.40
62853;DHT22;49205;44.868;38.140;2022-09-25T06:11:29;15.20;78.70
62853;DHT22;49205;44.868;38.140;2022-09-25T06:13:59;15.30;78.80
62853;DHT22;49205;44.868;38.140;2022-09-25T06:16:28;15.30;78.40
62853;DHT22;49205;44.868;38.140;2022-09-25T06:18:57;15.40;78.30
62853;DHT22;49205;44.868;38.140;2022-09-25T06:21:27;15.50;78.50
62853;DHT22;49205;44.868;38.140;2022-09-25T06:23:57;15.50;78.20
62853;DHT22;49205;44.868;38.140;2022-09-25T06:26:26;15.60;78.30
62853;DHT22;49205;44.868;38.140;2022-09-25T06:28:56;15.70;78.00
62853;DHT22;49205;44.868;38.140;2022-09-25T06:31:27;15.70;78.00
62853;DHT22;49205;44.868;38.140;2022-09-25T06:33:56;15.80;77.50
62853;DHT22;49205;44.868;38.140;2022-09-25T06:36:26;15.80;77.60
62853;DHT22;49205;44.868;38.140;2022-09-25T06:38:55;15.90;77.90
62853;DHT22;49205;44.868;38.140;2022-09-25T06:41:25;16.00;78.10
62853;DHT22;49205;44.868;38.140;2022-09-25T06:43:54;16.00;77.80
62853;DHT22;49205;44.868;38.140;2022-09-25T06:46:23;16.10;77.70
62853;DHT22;49205;44.868;38.140;2022-09-25T06:48:58;16.20;76.90
62853;DHT22;49205;44.868;38.140;2022-09-25T06:51:24;16.20;76.80
62853;DHT22;49205;44.868;38.140;2022-09-25T06:53:58;16.30;75.50
62853;DHT22;49205;44.868;38.140;2022-09-25T06:56:28;16.30;75.30
62853;DHT22;49205;44.868;38.140;2022-09-25T06:58:57;16.40;75.50
62853;DHT22;49205;44.868;38.140;2022-09-25T07:01:27;16.40;75.70
62853;DHT22;49205;44.868;38.140;2022-09-25T07:03:56;16.40;75.60
62853;DHT22;49205;44.868;38.140;2022-09-25T07:06:26;16.50;75.90
62853;DHT22;49205;44.868;38.140;2022-09-25T07:08:56;16.50;75.10
62853;DHT22;49205;44.868;38.140;2022-09-25T07:11:26;16.40;75.10
62853;DHT22;49205;44.868;38.140;2022-09-25T07:13:56;16.40;74.90
62853;DHT22;49205;44.868;38.140;2022-09-25T07:16:27;16.40;75.10
62853;DHT22;49205;44.868;38.140;2022-09-25T07:18:58;16.30;75.20
62853;DHT22;49205;44.868;38.140;2022-09-25T07:21:27;16.30;75.70
62853;DHT22;49205;44.868;38.140;2022-09-25T07:23:58;16.30;75.60
62853;DHT22;49205;44.868;38.140;2022-09-25T07:26:29;16.30;75.70
62853;DHT22;49205;44.868;38.140;2022-09-25T07:29:02;16.30;75.20
62853;DHT22;49205;44.868;38.140;2022-09-25T07:31:33;16.40;75.10
62853;DHT22;49205;44.868;38.140;2022-09-25T07:34:04;16.50;75.10
62853;DHT22;49205;44.868;38.140;2022-09-25T07:36:36;16.60;74.70
62853;DHT22;49205;44.868;38.140;2022-09-25T07:39:09;16.70;74.40
62853;DHT22;49205;44.868;38.140;2022-09-25T07:41:39;16.70;74.60
62853;DHT22;49205;44.868;38.140;2022-09-25T07:44:09;16.80;73.80
62853;DHT22;49205;44.868;38.140;2022-09-25T07:46:38;16.90;73.20
62853;DHT22;49205;44.868;38.140;2022-09-25T07:49:10;16.90;73.10
62853;DHT22;49205;44.868;38.140;2022-09-25T07:51:39;16.90;73.00
62853;DHT22;49205;44.868;38.140;2022-09-25T07:54:09;16.80;72.10
62853;DHT22;49205;44.868;38.140;2022-09-25T07:56:38;16.80;72.20
62853;DHT22;49205;44.868;38.140;2022-09-25T07:59:08;16.80;71.30
62853;DHT22;49205;44.868;38.140;2022-09-25T08:01:37;16.80;72.10
62853;DHT22;49205;44.868;38.140;2022-09-25T08:04:06;16.70;71.90
62853;DHT22;49205;44.868;38.140;2022-09-25T08:06:36;16.70;71.90
62853;DHT22;49205;44.868;38.140;2022-09-25T08:09:05;16.70;71.70
62853;DHT22;49205;44.868;38.140;2022-09-25T08:11:34;16.70;72.00
62853;DHT22;49205;44.868;38.140;2022-09-25T08:14:04;16.70;71.80
62853;DHT22;49205;44.868;38.140;2022-09-25T08:16:33;16.70;72.50
62853;DHT22;49205;44.868;38.140;2022-09-25T08:19:03;16.70;72.90
62853;DHT22;49205;44.868;38.140;2022-09-25T08:21:33;16.70;73.00
62853;DHT22;49205;44.868;38.140;2022-09-25T08:24:02;16.70;72.80
62853;DHT22;49205;44.868;38.140;2022-09-25T08:26:32;16.70;73.10
62853;DHT22;49205;44.868;38.140;2022-09-25T08:29:01;16.70;73.20
62853;DHT22;49205;44.868;38.140;2022-09-25T08:31:30;16.80;73.70
62853;DHT22;49205;44.868;38.140;2022-09-25T08:34:01;16.80;74.00
62853;DHT22;49205;44.868;38.140;2022-09-25T08:36:30;16.80;74.30
62853;DHT22;49205;44.868;38.140;2022-09-25T08:39:00;16.90;74.60
62853;DHT22;49205;44.868;38.140;2022-09-25T08:41:31;16.90;74.10
62853;DHT22;49205;44.868;38.140;2022-09-25T08:44:24;16.90;74.80
62853;DHT22;49205;44.868;38.140;2022-09-25T08:47:00;17.00;74.90
62853;DHT22;49205;44.868;38.140;2022-09-25T08:50:12;17.10;74.90
62853;DHT22;49205;44.868;38.140;2022-09-25T08:52:21;17.30;74.00
62853;DHT22;49205;44.868;38.140;2022-09-25T08:54:51;17.40;72.80
62853;DHT22;49205;44.868;38.140;2022-09-25T08:57:35;17.60;72.10
62853;DHT22;49205;44.868;38.140;2022-09-25T09:00:19;17.70;70.80
62853;DHT22;49205;44.868;38.140;2022-09-25T09:02:56;17.80;69.90
62853;DHT22;49205;44.868;38.140;2022-09-25T09:05:28;17.90;70.10
62853;DHT22;49205;44.868;38.140;2022-09-25T09:08:01;17.90;70.20
62853;DHT22;49205;44.868;38.140;2022-09-25T09:10:39;18.00;68.00
62853;DHT22;49205;44.868;38.140;2022-09-25T09:13:27;18.00;68.80
62853;DHT22;49205;44.868;38.140;2022-09-25T09:18:38;18.10;68.60
62853;DHT22;49205;44.868;38.140;2022-09-25T09:21:25;18.10;68.40
62853;DHT22;49205;44.868;38.140;2022-09-25T09:29:49;18.40;62.80
62853;DHT22;49205;44.868;38.140;2022-09-25T09:32:33;18.40;63.30
62853;DHT22;49205;44.868;38.140;2022-09-25T09:35:20;18.40;63.70
62853;DHT22;49205;44.868;38.140;2022-09-25T09:38:18;18.40;61.00
62853;DHT22;49205;44.868;38.140;2022-09-25T09:43:42;18.40;62.60
62853;DHT22;49205;44.868;38.140;2022-09-25T09:48:50;18.30;62.40
62853;DHT22;49205;44.868;38.140;2022-09-25T09:51:24;18.30;62.20
62853;DHT22;49205;44.868;38.140;2022-09-25T09:54:00;18.30;61.90
62853;DHT22;49205;44.868;38.140;2022-09-25T09:56:32;18.40;61.40
62853;DHT22;49205;44.868;38.140;2022-09-25T09:59:03;18.50;60.90
62853;DHT22;49205;44.868;38.140;2022-09-25T10:01:34;18.50;59.50
62853;DHT22;49205;44.868;38.140;2022-09-25T10:06:47;18.60;58.00
62853;DHT22;49205;44.868;38.140;2022-09-25T10:09:16;18.50;58.10
62853;DHT22;49205;44.868;38.140;2022-09-25T10:11:48;18.60;56.00
62853;DHT22;49205;44.868;38.140;2022-09-25T10:14:19;18.60;57.30
62853;DHT22;49205;44.868;38.140;2022-09-25T10:16:51;18.70;57.00
62853;DHT22;49205;44.868;38.140;2022-09-25T10:19:24;18.70;57.20
62853;DHT22;49205;44.868;38.140;2022-09-25T10:22:13;18.70;57.20
62853;DHT22;49205;44.868;38.140;2022-09-25T10:24:56;18.70;57.90
62853;DHT22;49205;44.868;38.140;2022-09-25T10:27:41;18.80;57.90
62853;DHT22;49205;44.868;38.140;2022-09-25T10:30:14;18.90;58.30
62853;DHT22;49205;44.868;38.140;2022-09-25T10:32:45;19.00;56.10
62853;DHT22;49205;44.868;38.140;2022-09-25T10:35:23;19.10;56.00
62853;DHT22;49205;44.868;38.140;2022-09-25T10:37:52;19.20;55.90
62853;DHT22;49205;44.868;38.140;2022-09-25T10:40:29;19.20;55.80
62853;DHT22;49205;44.868;38.140;2022-09-25T10:43:04;19.10;55.70
62853;DHT22;49205;44.868;38.140;2022-09-25T10:45:35;19.00;56.10
62853;DHT22;49205;44.868;38.140;2022-09-25T10:48:43;19.00;56.40
62853;DHT22;49205;44.868;38.140;2022-09-25T10:51:08;19.00;56.40
62853;DHT22;49205;44.868;38.140;2022-09-25T10:53:38;18.90;56.30
62853;DHT22;49205;44.868;38.140;2022-09-25T10:56:10;18.90;56.50
62853;DHT22;49205;44.868;38.140;2022-09-25T10:58:55;18.90;56.50
62853;DHT22;49205;44.868;38.140;2022-09-25T11:01:36;18.80;56.60
62853;DHT22;49205;44.868;38.140;2022-09-25T11:04:13;18.80;56.50
62853;DHT22;49205;44.868;38.140;2022-09-25T11:06:54;18.80;57.00
62853;DHT22;49205;44.868;38.140;2022-09-25T11:09:21;18.80;57.30
62853;DHT22;49205;44.868;38.140;2022-09-25T11:11:52;18.90;57.20
62853;DHT22;49205;44.868;38.140;2022-09-25T11:14:29;19.00;56.60
62853;DHT22;49205;44.868;38.140;2022-09-25T11:17:01;19.10;56.40
62853;DHT22;49205;44.868;38.140;2022-09-25T11:19:34;19.10;56.60
62853;DHT22;49205;44.868;38.140;2022-09-25T11:22:30;19.20;56.80
62853;DHT22;49205;44.868;38.140;2022-09-25T11:25:15;19.30;57.00
62853;DHT22;49205;44.868;38.140;2022-09-25T11:27:51;19.30;57.00
62853;DHT22;49205;44.868;38.140;2022-09-25T11:30:21;19.40;55.80
62853;DHT22;49205;44.868;38.140;2022-09-25T11:33:14;19.50;55.80
62853;DHT22;49205;44.868;38.140;2022-09-25T11:36:05;19.60;55.00
62853;DHT22;49205;44.868;38.140;2022-09-25T11:38:50;19.60;54.90
62853;DHT22;49205;44.868;38.140;2022-09-25T11:41:39;19.60;55.20
62853;DHT22;49205;44.868;38.140;2022-09-25T11:49:54;19.70;55.00
62853;DHT22;49205;44.868;38.140;2022-09-25T12:12:05;19.50;55.60
62853;DHT22;49205;44.868;38.140;2022-09-25T12:20:41;19.70;54.30
62853;DHT22;49205;44.868;38.140;2022-09-25T12:23:13;19.70;53.90
62853;DHT22;49205;44.868;38.140;2022-09-25T12:28:53;19.70;52.80
62853;DHT22;49205;44.868;38.140;2022-09-25T12:31:37;19.70;53.10
62853;DHT22;49205;44.868;38.140;2022-09-25T12:34:57;19.70;53.20
62853;DHT22;49205;44.868;38.140;2022-09-25T12:39:43;19.70;52.90
62853;DHT22;49205;44.868;38.140;2022-09-25T12:42:23;19.60;52.80
62853;DHT22;49205;44.868;38.140;2022-09-25T12:44:55;19.50;52.70
62853;DHT22;49205;44.868;38.140;2022-09-25T12:47:27;19.40;53.30
62853;DHT22;49205;44.868;38.140;2022-09-25T12:50:19;19.40;53.70
62853;DHT22;49205;44.868;38.140;2022-09-25T12:52:53;19.30;53.90
62853;DHT22;49205;44.868;38.140;2022-09-25T13:00:47;19.30;53.80
62853;DHT22;49205;44.868;38.140;2022-09-25T13:03:40;19.20;54.60
62853;DHT22;49205;44.868;38.140;2022-09-25T13:06:14;19.20;55.10
62853;DHT22;49205;44.868;38.140;2022-09-25T13:14:06;19.30;56.10
62853;DHT22;49205;44.868;38.140;2022-09-25T13:16:37;19.30;56.30
62853;DHT22;49205;44.868;38.140;2022-09-25T13:19:11;19.30;56.00
62853;DHT22;49205;44.868;38.140;2022-09-25T13:21:44;19.20;56.20
62853;DHT22;49205;44.868;38.140;2022-09-25T13:24:15;19.10;56.50
62853;DHT22;49205;44.868;38.140;2022-09-25T13:26:46;19.00;56.90
62853;DHT22;49205;44.868;38.140;2022-09-25T13:29:28;19.00;57.40
62853;DHT22;49205;44.868;38.140;2022-09-25T13:32:14;19.00;57.40
62853;DHT22;49205;44.868;38.140;2022-09-25T13:34:42;19.00;57.30
62853;DHT22;49205;44.868;38.140;2022-09-25T13:37:13;19.10;57.30
62853;DHT22;49205;44.868;38.140;2022-09-25T13:39:47;19.10;57.20
62853;DHT22;49205;44.868;38.140;2022-09-25T13:42:40;19.20;57.30
62853;DHT22;49205;44.868;38.140;2022-09-25T13:45:29;19.10;56.70
62853;DHT22;49205;44.868;38.140;2022-09-25T13:48:11;19.00;56.90
62853;DHT22;49205;44.868;38.140;2022-09-25T13:50:46;18.90;57.10
62853;DHT22;49205;44.868;38.140;2022-09-25T13:53:24;18.80;58.30
62853;DHT22;49205;44.868;38.140;2022-09-25T13:58:30;18.60;58.00
62853;DHT22;49205;44.868;38.140;2022-09-25T14:01:01;18.60;58.40
62853;DHT22;49205;44.868;38.140;2022-09-25T14:03:39;18.60;58.60
62853;DHT22;49205;44.868;38.140;2022-09-25T14:08:57;18.60;58.80
62853;DHT22;49205;44.868;38.140;2022-09-25T14:11:30;18.60;58.80
62853;DHT22;49205;44.868;38.140;2022-09-25T14:14:00;18.60;58.70
62853;DHT22;49205;44.868;38.140;2022-09-25T14:16:38;18.60;58.50
62853;DHT22;49205;44.868;38.140;2022-09-25T14:19:03;18.60;58.80
62853;DHT22;49205;44.868;38.140;2022-09-25T14:21:33;18.60;58.40
62853;DHT22;49205;44.868;38.140;2022-09-25T14:24:17;18.60;58.70
62853;DHT22;49205;44.868;38.140;2022-09-25T14:26:48;18.50;58.90
62853;DHT22;49205;44.868;38.140;2022-09-25T14:29:30;18.50;58.60
62853;DHT22;49205;44.868;38.140;2022-09-25T14:32:01;18.50;59.20
62853;DHT22;49205;44.868;38.140;2022-09-25T14:34:57;18.40;59.20
62853;DHT22;49205;44.868;38.140;2022-09-25T14:40:23;18.40;59.90
62853;DHT22;49205;44.868;38.140;2022-09-25T14:48:23;18.20;60.60
62853;DHT22;49205;44.868;38.140;2022-09-25T14:51:03;18.20;61.10
62853;DHT22;49205;44.868;38.140;2022-09-25T14:53:26;18.10;61.30
62853;DHT22;49205;44.868;38.140;2022-09-25T14:55:56;18.10;61.60
62853;DHT22;49205;44.868;38.140;2022-09-25T14:58:30;18.00;61.80
62853;DHT22;49205;44.868;38.140;2022-09-25T15:01:10;18.00;62.10
62853;DHT22;49205;44.868;38.140;2022-09-25T15:03:38;17.90;62.60
62853;DHT22;49205;44.868;38.140;2022-09-25T15:06:07;17.90;63.00
62853;DHT22;49205;44.868;38.140;2022-09-25T15:08:38;17.80;63.40
62853;DHT22;49205;44.868;38.140;2022-09-25T15:11:16;17.80;64.00
62853;DHT22;49205;44.868;38.140;2022-09-25T15:13:45;17.70;64.50
62853;DHT22;49205;44.868;38.140;2022-09-25T15:16:19;17.70;64.90
62853;DHT22;49205;44.868;38.140;2022-09-25T15:19:19;17.70;64.60
62853;DHT22;49205;44.868;38.140;2022-09-25T15:21:48;17.60;64.60
62853;DHT22;49205;44.868;38.140;2022-09-25T15:24:23;17.50;64.80
62853;DHT22;49205;44.868;38.140;2022-09-25T15:27:04;17.40;65.10
62853;DHT22;49205;44.868;38.140;2022-09-25T15:29:35;17.40;65.70
62853;DHT22;49205;44.868;38.140;2022-09-25T15:32:05;17.40;66.50
62853;DHT22;49205;44.868;38.140;2022-09-25T15:34:34;17.30;66.90
62853;DHT22;49205;44.868;38.140;2022-09-25T15:39:53;17.20;67.60
62853;DHT22;49205;44.868;38.140;2022-09-25T15:42:22;17.20;67.30
62853;DHT22;49205;44.868;38.140;2022-09-25T15:44:52;17.10;67.50
62853;DHT22;49205;44.868;38.140;2022-09-25T15:50:05;17.00;68.60
62853;DHT22;49205;44.868;38.140;2022-09-25T15:52:35;16.90;69.00
62853;DHT22;49205;44.868;38.140;2022-09-25T15:55:12;16.90;69.00
62853;DHT22;49205;44.868;38.140;2022-09-25T15:57:42;16.80;69.50
62853;DHT22;49205;44.868;38.140;2022-09-25T16:00:25;16.80;69.70
62853;DHT22;49205;44.868;38.140;2022-09-25T16:03:20;16.70;69.30
62853;DHT22;49205;44.868;38.140;2022-09-25T16:06:15;16.70;70.40
62853;DHT22;49205;44.868;38.140;2022-09-25T16:08:45;16.70;70.70
62853;DHT22;49205;44.868;38.140;2022-09-25T16:11:27;16.60;70.90
62853;DHT22;49205;44.868;38.140;2022-09-25T16:14:11;16.60;71.60
62853;DHT22;49205;44.868;38.140;2022-09-25T16:16:26;16.60;72.00
62853;DHT22;49205;44.868;38.140;2022-09-25T16:18:58;16.50;71.70
62853;DHT22;49205;44.868;38.140;2022-09-25T16:21:30;16.40;71.60
62853;DHT22;49205;44.868;38.140;2022-09-25T16:24:05;16.30;72.60
62853;DHT22;49205;44.868;38.140;2022-09-25T16:26:41;16.20;72.40
62853;DHT22;49205;44.868;38.140;2022-09-25T16:29:25;16.10;73.10
62853;DHT22;49205;44.868;38.140;2022-09-25T16:32:02;16.00;73.90
62853;DHT22;49205;44.868;38.140;2022-09-25T16:34:38;16.00;74.20
62853;DHT22;49205;44.868;38.140;2022-09-25T16:37:17;16.00;73.90
62853;DHT22;49205;44.868;38.140;2022-09-25T16:39:40;16.00;74.10
62853;DHT22;49205;44.868;38.140;2022-09-25T16:45:09;15.90;75.50
62853;DHT22;49205;44.868;38.140;2022-09-25T16:47:27;15.90;75.70
62853;DHT22;49205;44.868;38.140;2022-09-25T16:49:56;15.80;75.80
62853;DHT22;49205;44.868;38.140;2022-09-25T16:52:27;15.90;76.20
62853;DHT22;49205;44.868;38.140;2022-09-25T16:54:57;15.90;76.00
62853;DHT22;49205;44.868;38.140;2022-09-25T16:57:27;15.90;76.20
62853;DHT22;49205;44.868;38.140;2022-09-25T16:59:58;15.80;77.30
62853;DHT22;49205;44.868;38.140;2022-09-25T17:02:30;15.80;77.10
62853;DHT22;49205;44.868;38.140;2022-09-25T17:05:06;15.80;77.50
62853;DHT22;49205;44.868;38.140;2022-09-25T17:07:31;15.80;77.70
62853;DHT22;49205;44.868;38.140;2022-09-25T17:10:00;15.80;78.00
62853;DHT22;49205;44.868;38.140;2022-09-25T17:12:30;15.80;77.70
62853;DHT22;49205;44.868;38.140;2022-09-25T17:15:00;15.70;77.70
62853;DHT22;49205;44.868;38.140;2022-09-25T17:17:29;15.70;78.10
62853;DHT22;49205;44.868;38.140;2022-09-25T17:19:59;15.70;78.50
62853;DHT22;49205;44.868;38.140;2022-09-25T17:22:28;15.60;78.60
62853;DHT22;49205;44.868;38.140;2022-09-25T17:25:00;15.60;78.70
62853;DHT22;49205;44.868;38.140;2022-09-25T17:27:29;15.60;78.50
62853;DHT22;49205;44.868;38.140;2022-09-25T17:29:59;15.60;78.60
62853;DHT22;49205;44.868;38.140;2022-09-25T17:32:28;15.50;78.80
62853;DHT22;49205;44.868;38.140;2022-09-25T17:35:00;15.40;78.90
62853;DHT22;49205;44.868;38.140;2022-09-25T17:37:29;15.30;79.00
62853;DHT22;49205;44.868;38.140;2022-09-25T17:39:59;15.20;79.40
62853;DHT22;49205;44.868;38.140;2022-09-25T17:42:28;15.20;80.20
62853;DHT22;49205;44.868;38.140;2022-09-25T17:44:58;15.20;80.40
62853;DHT22;49205;44.868;38.140;2022-09-25T17:47:27;15.30;80.80